sensor_id;sensor_type;location;lat;lon;timestamp;P1;durP1;ratioP1;P2;durP2;ratioP2
67140;SDS011;54058;52.010;5.546;2023-05-10T00:00:07;38.30;;;21.52;;
67140;SDS011;54058;52.010;5.546;2023-05-10T00:02:34;41.00;;;22.50;;
67140;SDS011;54058;52.010;5.546;2023-05-10T00:04:59;36.05;;;21.80;;
67140;SDS011;54058;52.010;5.546;2023-05-10T00:07:26;43.20;;;24.57;;
67140;SDS011;54058;52.010;5.546;2023-05-10T00:09:51;36.30;;;20.83;;
67140;SDS011;54058;52.010;5.546;2023-05-10T00:12:17;36.97;;;21.27;;
67140;SDS011;54058;52.010;5.546;2023-05-10T00:14:42;46.72;;;23.73;;
67140;SDS011;54058;52.010;5.546;2023-05-10T00:17:08;37.85;;;19.58;;
67140;SDS011;54058;52.010;5.546;2023-05-10T00:19:34;40.53;;;22.25;;
67140;SDS011;54058;52.010;5.546;2023-05-10T00:21:59;45.20;;;24.95;;
67140;SDS011;54058;52.010;5.546;2023-05-10T00:24:25;42.83;;;23.15;;
67140;SDS011;54058;52.010;5.546;2023-05-10T00:26:50;40.33;;;21.95;;
67140;SDS011;54058;52.010;5.546;2023-05-10T00:29:16;51.70;;;26.30;;
67140;SDS011;54058;52.010;5.546;2023-05-10T00:31:42;39.90;;;22.23;;
67140;SDS011;54058;52.010;5.546;2023-05-10T00:34:07;38.00;;;20.83;;
67140;SDS011;54058;52.010;5.546;2023-05-10T00:36:33;40.75;;;21.95;;
67140;SDS011;54058;52.010;5.546;2023-05-10T00:38:58;36.13;;;20.17;;
67140;SDS011;54058;52.010;5.546;2023-05-10T00:41:24;43.05;;;23.05;;
67140;SDS011;54058;52.010;5.546;2023-05-10T00:43:50;40.15;;;23.23;;
67140;SDS011;54058;52.010;5.546;2023-05-10T00:46:16;53.17;;;26.23;;
67140;SDS011;54058;52.010;5.546;2023-05-10T00:48:42;41.67;;;22.00;;
67140;SDS011;54058;52.010;5.546;2023-05-10T00:51:09;39.28;;;20.90;;
67140;SDS011;54058;52.010;5.546;2023-05-10T00:53:35;40.10;;;21.67;;
67140;SDS011;54058;52.010;5.546;2023-05-10T00:56:00;41.13;;;22.30;;
67140;SDS011;54058;52.010;5.546;2023-05-10T01:00:54;36.53;;;21.37;;
67140;SDS011;54058;52.010;5.546;2023-05-10T01:03:21;39.08;;;20.50;;
67140;SDS011;54058;52.010;5.546;2023-05-10T01:05:47;40.50;;;20.83;;
67140;SDS011;54058;52.010;5.546;2023-05-10T01:08:13;40.90;;;21.85;;
67140;SDS011;54058;52.010;5.546;2023-05-10T01:10:39;47.50;;;22.15;;
67140;SDS011;54058;52.010;5.546;2023-05-10T01:13:05;44.72;;;19.73;;
67140;SDS011;54058;52.010;5.546;2023-05-10T01:15:31;47.42;;;23.42;;
67140;SDS011;54058;52.010;5.546;2023-05-10T01:17:57;48.55;;;23.35;;
67140;SDS011;54058;52.010;5.546;2023-05-10T01:20:23;43.33;;;22.70;;
67140;SDS011;54058;52.010;5.546;2023-05-10T01:28:39;44.03;;;20.98;;
67140;SDS011;54058;52.010;5.546;2023-05-10T01:34:12;38.85;;;20.77;;
67140;SDS011;54058;52.010;5.546;2023-05-10T01:36:51;41.53;;;21.40;;
67140;SDS011;54058;52.010;5.546;2023-05-10T01:39:41;50.85;;;23.50;;
67140;SDS011;54058;52.010;5.546;2023-05-10T01:42:23;48.30;;;23.58;;
67140;SDS011;54058;52.010;5.546;2023-05-10T01:45:05;46.03;;;22.58;;
67140;SDS011;54058;52.010;5.546;2023-05-10T01:47:42;56.90;;;24.20;;
67140;SDS011;54058;52.010;5.546;2023-05-10T01:50:10;56.95;;;25.73;;
67140;SDS011;54058;52.010;5.546;2023-05-10T01:52:42;44.67;;;23.75;;
67140;SDS011;54058;52.010;5.546;2023-05-10T01:55:14;48.03;;;23.25;;
67140;SDS011;54058;52.010;5.546;2023-05-10T01:57:42;54.15;;;23.95;;
67140;SDS011;54058;52.010;5.546;2023-05-10T02:00:11;44.10;;;22.73;;
67140;SDS011;54058;52.010;5.546;2023-05-10T02:02:39;53.30;;;25.38;;
67140;SDS011;54058;52.010;5.546;2023-05-10T02:05:07;50.10;;;22.70;;
67140;SDS011;54058;52.010;5.546;2023-05-10T02:07:34;58.30;;;26.63;;
67140;SDS011;54058;52.010;5.546;2023-05-10T02:10:02;50.40;;;23.75;;
67140;SDS011;54058;52.010;5.546;2023-05-10T02:12:35;53.00;;;26.33;;
67140;SDS011;54058;52.010;5.546;2023-05-10T02:15:03;53.67;;;25.90;;
67140;SDS011;54058;52.010;5.546;2023-05-10T02:17:31;57.80;;;26.98;;
67140;SDS011;54058;52.010;5.546;2023-05-10T02:19:59;55.20;;;25.65;;
67140;SDS011;54058;52.010;5.546;2023-05-10T02:22:26;57.38;;;27.25;;
67140;SDS011;54058;52.010;5.546;2023-05-10T02:24:53;50.38;;;24.75;;
67140;SDS011;54058;52.010;5.546;2023-05-10T02:27:23;53.83;;;26.80;;
67140;SDS011;54058;52.010;5.546;2023-05-10T02:29:50;53.35;;;24.83;;
67140;SDS011;54058;52.010;5.546;2023-05-10T02:32:17;53.63;;;24.27;;
67140;SDS011;54058;52.010;5.546;2023-05-10T02:34:44;50.67;;;26.52;;
67140;SDS011;54058;52.010;5.546;2023-05-10T02:37:11;54.28;;;26.67;;
67140;SDS011;54058;52.010;5.546;2023-05-10T02:39:39;59.40;;;28.02;;
67140;SDS011;54058;52.010;5.546;2023-05-10T02:42:10;61.47;;;27.10;;
67140;SDS011;54058;52.010;5.546;2023-05-10T02:44:42;48.90;;;24.27;;
67140;SDS011;54058;52.010;5.546;2023-05-10T02:47:10;50.15;;;24.77;;
67140;SDS011;54058;52.010;5.546;2023-05-10T02:49:36;44.90;;;24.80;;
67140;SDS011;54058;52.010;5.546;2023-05-10T02:52:02;45.40;;;25.17;;
67140;SDS011;54058;52.010;5.546;2023-05-10T02:54:33;52.70;;;26.30;;
67140;SDS011;54058;52.010;5.546;2023-05-10T02:57:03;50.83;;;25.00;;
67140;SDS011;54058;52.010;5.546;2023-05-10T02:59:30;47.53;;;24.70;;
67140;SDS011;54058;52.010;5.546;2023-05-10T03:01:57;64.35;;;28.67;;
67140;SDS011;54058;52.010;5.546;2023-05-10T03:04:25;67.97;;;28.50;;
67140;SDS011;54058;52.010;5.546;2023-05-10T03:06:50;60.22;;;28.13;;
67140;SDS011;54058;52.010;5.546;2023-05-10T03:09:16;50.30;;;25.17;;
67140;SDS011;54058;52.010;5.546;2023-05-10T03:14:33;55.75;;;27.65;;
67140;SDS011;54058;52.010;5.546;2023-05-10T03:17:29;54.03;;;26.95;;
67140;SDS011;54058;52.010;5.546;2023-05-10T03:20:03;56.10;;;26.95;;
67140;SDS011;54058;52.010;5.546;2023-05-10T03:22:36;57.90;;;28.83;;
67140;SDS011;54058;52.010;5.546;2023-05-10T03:25:06;54.55;;;28.05;;
67140;SDS011;54058;52.010;5.546;2023-05-10T03:27:33;58.25;;;26.58;;
67140;SDS011;54058;52.010;5.546;2023-05-10T03:30:01;57.70;;;27.98;;
67140;SDS011;54058;52.010;5.546;2023-05-10T03:32:28;54.42;;;27.15;;
67140;SDS011;54058;52.010;5.546;2023-05-10T03:37:20;51.23;;;24.13;;
67140;SDS011;54058;52.010;5.546;2023-05-10T03:39:46;52.72;;;26.83;;
67140;SDS011;54058;52.010;5.546;2023-05-10T03:42:12;58.88;;;28.05;;
67140;SDS011;54058;52.010;5.546;2023-05-10T03:44:38;58.60;;;28.00;;
67140;SDS011;54058;52.010;5.546;2023-05-10T03:47:04;56.53;;;27.95;;
67140;SDS011;54058;52.010;5.546;2023-05-10T03:49:30;52.58;;;26.08;;
67140;SDS011;54058;52.010;5.546;2023-05-10T03:51:55;59.78;;;26.77;;
67140;SDS011;54058;52.010;5.546;2023-05-10T03:54:21;66.65;;;28.30;;
67140;SDS011;54058;52.010;5.546;2023-05-10T03:56:47;61.42;;;26.52;;
67140;SDS011;54058;52.010;5.546;2023-05-10T03:59:13;56.75;;;25.13;;
67140;SDS011;54058;52.010;5.546;2023-05-10T04:01:38;52.20;;;24.20;;
67140;SDS011;54058;52.010;5.546;2023-05-10T04:04:04;61.70;;;27.60;;
67140;SDS011;54058;52.010;5.546;2023-05-10T04:06:29;60.03;;;26.48;;
67140;SDS011;54058;52.010;5.546;2023-05-10T04:08:55;56.45;;;25.58;;
67140;SDS011;54058;52.010;5.546;2023-05-10T04:11:21;61.08;;;26.25;;
67140;SDS011;54058;52.010;5.546;2023-05-10T04:13:47;55.08;;;24.40;;
67140;SDS011;54058;52.010;5.546;2023-05-10T04:16:13;59.30;;;25.38;;
67140;SDS011;54058;52.010;5.546;2023-05-10T04:18:39;56.42;;;25.17;;
67140;SDS011;54058;52.010;5.546;2023-05-10T04:21:10;50.05;;;22.08;;
67140;SDS011;54058;52.010;5.546;2023-05-10T04:23:39;56.28;;;24.40;;
67140;SDS011;54058;52.010;5.546;2023-05-10T04:26:05;50.65;;;22.08;;
67140;SDS011;54058;52.010;5.546;2023-05-10T04:28:30;50.50;;;22.35;;
67140;SDS011;54058;52.010;5.546;2023-05-10T04:33:29;46.33;;;21.95;;
67140;SDS011;54058;52.010;5.546;2023-05-10T04:35:54;59.53;;;24.00;;
67140;SDS011;54058;52.010;5.546;2023-05-10T04:38:20;63.17;;;25.73;;
67140;SDS011;54058;52.010;5.546;2023-05-10T04:40:46;58.67;;;24.88;;
67140;SDS011;54058;52.010;5.546;2023-05-10T04:43:11;59.45;;;24.25;;
67140;SDS011;54058;52.010;5.546;2023-05-10T04:45:37;58.70;;;25.63;;
67140;SDS011;54058;52.010;5.546;2023-05-10T04:48:03;62.25;;;25.33;;
67140;SDS011;54058;52.010;5.546;2023-05-10T04:50:28;60.75;;;24.13;;
67140;SDS011;54058;52.010;5.546;2023-05-10T04:52:54;57.08;;;23.58;;
67140;SDS011;54058;52.010;5.546;2023-05-10T04:55:19;55.28;;;23.33;;
67140;SDS011;54058;52.010;5.546;2023-05-10T04:57:46;69.35;;;26.17;;
67140;SDS011;54058;52.010;5.546;2023-05-10T05:00:11;63.92;;;26.27;;
67140;SDS011;54058;52.010;5.546;2023-05-10T05:02:37;69.47;;;26.47;;
67140;SDS011;54058;52.010;5.546;2023-05-10T05:05:03;73.68;;;26.67;;
67140;SDS011;54058;52.010;5.546;2023-05-10T05:07:29;65.72;;;25.15;;
67140;SDS011;54058;52.010;5.546;2023-05-10T05:09:55;76.55;;;27.23;;
67140;SDS011;54058;52.010;5.546;2023-05-10T05:12:21;65.32;;;25.80;;
67140;SDS011;54058;52.010;5.546;2023-05-10T05:14:47;53.90;;;22.08;;
67140;SDS011;54058;52.010;5.546;2023-05-10T05:17:12;54.40;;;24.33;;
67140;SDS011;54058;52.010;5.546;2023-05-10T05:19:38;56.13;;;23.92;;
67140;SDS011;54058;52.010;5.546;2023-05-10T05:22:06;59.50;;;25.13;;
67140;SDS011;54058;52.010;5.546;2023-05-10T05:24:35;53.10;;;24.48;;
67140;SDS011;54058;52.010;5.546;2023-05-10T05:27:04;54.88;;;24.75;;
67140;SDS011;54058;52.010;5.546;2023-05-10T05:29:30;71.38;;;26.80;;
67140;SDS011;54058;52.010;5.546;2023-05-10T05:31:56;59.20;;;24.70;;
67140;SDS011;54058;52.010;5.546;2023-05-10T05:34:22;60.95;;;24.92;;
67140;SDS011;54058;52.010;5.546;2023-05-10T05:36:47;47.83;;;23.10;;
67140;SDS011;54058;52.010;5.546;2023-05-10T05:39:13;59.08;;;26.25;;
67140;SDS011;54058;52.010;5.546;2023-05-10T05:41:39;53.00;;;23.65;;
67140;SDS011;54058;52.010;5.546;2023-05-10T05:44:04;56.67;;;25.77;;
67140;SDS011;54058;52.010;5.546;2023-05-10T05:46:30;58.00;;;25.65;;
67140;SDS011;54058;52.010;5.546;2023-05-10T05:48:56;63.15;;;26.75;;
67140;SDS011;54058;52.010;5.546;2023-05-10T05:51:21;58.65;;;27.48;;
67140;SDS011;54058;52.010;5.546;2023-05-10T05:53:47;66.78;;;27.83;;
67140;SDS011;54058;52.010;5.546;2023-05-10T05:56:13;56.45;;;24.85;;
67140;SDS011;54058;52.010;5.546;2023-05-10T05:58:38;68.50;;;28.27;;
67140;SDS011;54058;52.010;5.546;2023-05-10T06:01:04;61.83;;;27.85;;
67140;SDS011;54058;52.010;5.546;2023-05-10T06:03:30;58.78;;;26.60;;
67140;SDS011;54058;52.010;5.546;2023-05-10T06:05:55;66.70;;;27.75;;
67140;SDS011;54058;52.010;5.546;2023-05-10T06:08:21;66.82;;;28.90;;
67140;SDS011;54058;52.010;5.546;2023-05-10T06:10:47;73.15;;;29.45;;
67140;SDS011;54058;52.010;5.546;2023-05-10T06:13:13;73.30;;;29.48;;
67140;SDS011;54058;52.010;5.546;2023-05-10T06:15:38;65.22;;;27.58;;
67140;SDS011;54058;52.010;5.546;2023-05-10T06:18:04;82.55;;;29.33;;
67140;SDS011;54058;52.010;5.546;2023-05-10T06:20:31;74.25;;;29.50;;
67140;SDS011;54058;52.010;5.546;2023-05-10T06:22:57;64.00;;;26.88;;
67140;SDS011;54058;52.010;5.546;2023-05-10T06:25:23;65.88;;;27.35;;
67140;SDS011;54058;52.010;5.546;2023-05-10T06:27:48;62.78;;;27.05;;
67140;SDS011;54058;52.010;5.546;2023-05-10T06:30:14;58.50;;;25.73;;
67140;SDS011;54058;52.010;5.546;2023-05-10T06:32:40;65.65;;;28.58;;
67140;SDS011;54058;52.010;5.546;2023-05-10T06:35:06;64.37;;;28.23;;
67140;SDS011;54058;52.010;5.546;2023-05-10T06:37:32;73.23;;;27.83;;
67140;SDS011;54058;52.010;5.546;2023-05-10T06:39:59;76.67;;;28.30;;
67140;SDS011;54058;52.010;5.546;2023-05-10T06:42:25;63.30;;;27.58;;
67140;SDS011;54058;52.010;5.546;2023-05-10T06:44:52;69.20;;;29.35;;
67140;SDS011;54058;52.010;5.546;2023-05-10T06:47:18;62.47;;;26.50;;
67140;SDS011;54058;52.010;5.546;2023-05-10T06:49:43;61.10;;;27.23;;
67140;SDS011;54058;52.010;5.546;2023-05-10T06:52:09;70.60;;;30.50;;
67140;SDS011;54058;52.010;5.546;2023-05-10T06:54:34;59.60;;;26.50;;
67140;SDS011;54058;52.010;5.546;2023-05-10T06:57:00;60.00;;;27.48;;
67140;SDS011;54058;52.010;5.546;2023-05-10T06:59:28;72.45;;;30.35;;
67140;SDS011;54058;52.010;5.546;2023-05-10T07:01:53;74.65;;;31.60;;
67140;SDS011;54058;52.010;5.546;2023-05-10T07:04:19;74.00;;;30.23;;
67140;SDS011;54058;52.010;5.546;2023-05-10T07:06:44;65.22;;;28.35;;
67140;SDS011;54058;52.010;5.546;2023-05-10T07:09:11;54.47;;;25.85;;
67140;SDS011;54058;52.010;5.546;2023-05-10T07:11:38;52.17;;;26.45;;
67140;SDS011;54058;52.010;5.546;2023-05-10T07:14:03;61.30;;;28.95;;
67140;SDS011;54058;52.010;5.546;2023-05-10T07:16:30;56.58;;;25.55;;
67140;SDS011;54058;52.010;5.546;2023-05-10T07:18:55;67.85;;;30.15;;
67140;SDS011;54058;52.010;5.546;2023-05-10T07:21:21;60.58;;;28.00;;
67140;SDS011;54058;52.010;5.546;2023-05-10T07:23:48;56.75;;;26.48;;
67140;SDS011;54058;52.010;5.546;2023-05-10T07:26:15;49.03;;;25.80;;
67140;SDS011;54058;52.010;5.546;2023-05-10T07:28:41;53.88;;;26.80;;
67140;SDS011;54058;52.010;5.546;2023-05-10T07:31:06;47.88;;;23.67;;
67140;SDS011;54058;52.010;5.546;2023-05-10T07:33:32;46.83;;;23.10;;
67140;SDS011;54058;52.010;5.546;2023-05-10T07:35:58;45.38;;;22.80;;
67140;SDS011;54058;52.010;5.546;2023-05-10T07:38:23;43.33;;;21.20;;
67140;SDS011;54058;52.010;5.546;2023-05-10T07:40:49;42.47;;;20.17;;
67140;SDS011;54058;52.010;5.546;2023-05-10T07:43:14;40.72;;;19.15;;
67140;SDS011;54058;52.010;5.546;2023-05-10T07:45:40;33.65;;;17.35;;
67140;SDS011;54058;52.010;5.546;2023-05-10T07:48:05;29.30;;;16.08;;
67140;SDS011;54058;52.010;5.546;2023-05-10T07:50:31;26.75;;;15.32;;
67140;SDS011;54058;52.010;5.546;2023-05-10T07:52:57;27.50;;;14.43;;
67140;SDS011;54058;52.010;5.546;2023-05-10T07:55:22;33.08;;;15.00;;
67140;SDS011;54058;52.010;5.546;2023-05-10T07:57:48;31.13;;;13.70;;
67140;SDS011;54058;52.010;5.546;2023-05-10T08:00:16;25.67;;;12.82;;
67140;SDS011;54058;52.010;5.546;2023-05-10T08:02:43;25.48;;;13.88;;
67140;SDS011;54058;52.010;5.546;2023-05-10T08:05:09;25.25;;;12.57;;
67140;SDS011;54058;52.010;5.546;2023-05-10T08:07:34;21.15;;;10.70;;
67140;SDS011;54058;52.010;5.546;2023-05-10T08:10:00;16.88;;;9.85;;
67140;SDS011;54058;52.010;5.546;2023-05-10T08:12:26;16.30;;;9.20;;
67140;SDS011;54058;52.010;5.546;2023-05-10T08:14:52;18.15;;;10.25;;
67140;SDS011;54058;52.010;5.546;2023-05-10T08:17:18;17.48;;;9.65;;
67140;SDS011;54058;52.010;5.546;2023-05-10T08:19:43;17.90;;;9.02;;
67140;SDS011;54058;52.010;5.546;2023-05-10T08:22:09;17.85;;;9.25;;
67140;SDS011;54058;52.010;5.546;2023-05-10T08:24:35;15.95;;;10.52;;
67140;SDS011;54058;52.010;5.546;2023-05-10T08:27:04;18.17;;;9.88;;
67140;SDS011;54058;52.010;5.546;2023-05-10T08:29:30;18.50;;;10.48;;
67140;SDS011;54058;52.010;5.546;2023-05-10T08:31:56;17.02;;;8.63;;
67140;SDS011;54058;52.010;5.546;2023-05-10T08:34:21;14.35;;;8.55;;
67140;SDS011;54058;52.010;5.546;2023-05-10T08:36:47;18.55;;;10.10;;
67140;SDS011;54058;52.010;5.546;2023-05-10T08:39:12;16.85;;;9.35;;
67140;SDS011;54058;52.010;5.546;2023-05-10T08:41:38;14.80;;;9.35;;
67140;SDS011;54058;52.010;5.546;2023-05-10T08:44:05;14.05;;;9.40;;
67140;SDS011;54058;52.010;5.546;2023-05-10T08:46:33;20.85;;;9.10;;
67140;SDS011;54058;52.010;5.546;2023-05-10T08:49:01;12.20;;;8.50;;
67140;SDS011;54058;52.010;5.546;2023-05-10T08:51:29;14.82;;;9.27;;
67140;SDS011;54058;52.010;5.546;2023-05-10T08:54:00;13.48;;;8.57;;
67140;SDS011;54058;52.010;5.546;2023-05-10T08:58:53;14.77;;;9.60;;
67140;SDS011;54058;52.010;5.546;2023-05-10T09:01:20;16.95;;;8.95;;
67140;SDS011;54058;52.010;5.546;2023-05-10T09:03:46;11.80;;;8.45;;
67140;SDS011;54058;52.010;5.546;2023-05-10T09:06:13;12.88;;;7.68;;
67140;SDS011;54058;52.010;5.546;2023-05-10T09:08:40;16.60;;;8.53;;
67140;SDS011;54058;52.010;5.546;2023-05-10T09:11:08;15.15;;;8.43;;
67140;SDS011;54058;52.010;5.546;2023-05-10T09:13:34;15.93;;;7.57;;
67140;SDS011;54058;52.010;5.546;2023-05-10T09:16:01;16.58;;;8.35;;
67140;SDS011;54058;52.010;5.546;2023-05-10T09:18:28;13.18;;;7.82;;
67140;SDS011;54058;52.010;5.546;2023-05-10T09:20:54;13.88;;;8.10;;
67140;SDS011;54058;52.010;5.546;2023-05-10T09:23:19;13.88;;;7.95;;
67140;SDS011;54058;52.010;5.546;2023-05-10T09:25:46;11.10;;;7.30;;
67140;SDS011;54058;52.010;5.546;2023-05-10T09:28:12;14.50;;;7.45;;
67140;SDS011;54058;52.010;5.546;2023-05-10T09:30:37;13.23;;;7.45;;
67140;SDS011;54058;52.010;5.546;2023-05-10T09:33:04;13.63;;;7.43;;
67140;SDS011;54058;52.010;5.546;2023-05-10T09:35:30;15.27;;;7.18;;
67140;SDS011;54058;52.010;5.546;2023-05-10T09:37:59;9.05;;;6.80;;
67140;SDS011;54058;52.010;5.546;2023-05-10T09:40:28;15.35;;;8.45;;
67140;SDS011;54058;52.010;5.546;2023-05-10T09:42:58;11.98;;;6.88;;
67140;SDS011;54058;52.010;5.546;2023-05-10T09:45:34;10.90;;;6.93;;
67140;SDS011;54058;52.010;5.546;2023-05-10T09:48:01;11.52;;;7.07;;
67140;SDS011;54058;52.010;5.546;2023-05-10T09:50:27;9.57;;;7.28;;
67140;SDS011;54058;52.010;5.546;2023-05-10T09:52:57;11.32;;;7.57;;
67140;SDS011;54058;52.010;5.546;2023-05-10T09:55:25;10.93;;;6.63;;
67140;SDS011;54058;52.010;5.546;2023-05-10T09:58:02;13.45;;;7.25;;
67140;SDS011;54058;52.010;5.546;2023-05-10T10:00:33;13.68;;;6.78;;
67140;SDS011;54058;52.010;5.546;2023-05-10T10:03:00;12.40;;;7.60;;
67140;SDS011;54058;52.010;5.546;2023-05-10T10:05:40;12.85;;;6.50;;
67140;SDS011;54058;52.010;5.546;2023-05-10T10:08:10;11.10;;;6.60;;
67140;SDS011;54058;52.010;5.546;2023-05-10T10:10:37;9.82;;;7.10;;
67140;SDS011;54058;52.010;5.546;2023-05-10T10:13:05;11.15;;;6.93;;
67140;SDS011;54058;52.010;5.546;2023-05-10T10:15:31;11.32;;;7.47;;
67140;SDS011;54058;52.010;5.546;2023-05-10T10:17:58;8.98;;;6.50;;
67140;SDS011;54058;52.010;5.546;2023-05-10T10:20:25;10.73;;;6.63;;
67140;SDS011;54058;52.010;5.546;2023-05-10T10:22:51;13.82;;;7.35;;
67140;SDS011;54058;52.010;5.546;2023-05-10T10:25:18;12.57;;;6.65;;
67140;SDS011;54058;52.010;5.546;2023-05-10T10:35:36;12.70;;;6.57;;
67140;SDS011;54058;52.010;5.546;2023-05-10T10:38:02;14.27;;;6.97;;
67140;SDS011;54058;52.010;5.546;2023-05-10T10:46:09;10.32;;;6.25;;
67140;SDS011;54058;52.010;5.546;2023-05-10T10:48:50;8.75;;;6.00;;
67140;SDS011;54058;52.010;5.546;2023-05-10T10:51:37;9.13;;;5.90;;
67140;SDS011;54058;52.010;5.546;2023-05-10T10:54:09;8.77;;;5.72;;
67140;SDS011;54058;52.010;5.546;2023-05-10T10:56:35;6.45;;;5.18;;
67140;SDS011;54058;52.010;5.546;2023-05-10T10:59:01;19.20;;;6.70;;
67140;SDS011;54058;52.010;5.546;2023-05-10T11:01:27;9.50;;;6.17;;
67140;SDS011;54058;52.010;5.546;2023-05-10T11:06:29;10.55;;;5.95;;
67140;SDS011;54058;52.010;5.546;2023-05-10T11:08:59;7.00;;;6.10;;
67140;SDS011;54058;52.010;5.546;2023-05-10T11:11:30;8.15;;;6.10;;
67140;SDS011;54058;52.010;5.546;2023-05-10T11:13:56;8.80;;;5.50;;
67140;SDS011;54058;52.010;5.546;2023-05-10T11:16:28;13.38;;;7.03;;
67140;SDS011;54058;52.010;5.546;2023-05-10T11:19:13;10.35;;;6.30;;
67140;SDS011;54058;52.010;5.546;2023-05-10T11:24:30;9.13;;;6.13;;
67140;SDS011;54058;52.010;5.546;2023-05-10T11:26:56;11.57;;;5.50;;
67140;SDS011;54058;52.010;5.546;2023-05-10T11:29:22;9.30;;;6.30;;
67140;SDS011;54058;52.010;5.546;2023-05-10T11:31:49;6.83;;;5.33;;
67140;SDS011;54058;52.010;5.546;2023-05-10T11:34:28;11.27;;;6.15;;
67140;SDS011;54058;52.010;5.546;2023-05-10T11:36:56;11.93;;;6.15;;
67140;SDS011;54058;52.010;5.546;2023-05-10T11:39:29;8.68;;;5.65;;
67140;SDS011;54058;52.010;5.546;2023-05-10T11:41:56;9.30;;;6.22;;
67140;SDS011;54058;52.010;5.546;2023-05-10T11:44:23;10.82;;;5.30;;
67140;SDS011;54058;52.010;5.546;2023-05-10T11:49:15;8.77;;;5.67;;
67140;SDS011;54058;52.010;5.546;2023-05-10T11:51:41;7.90;;;5.97;;
67140;SDS011;54058;52.010;5.546;2023-05-10T11:54:09;9.68;;;5.90;;
67140;SDS011;54058;52.010;5.546;2023-05-10T11:56:39;11.60;;;6.60;;
67140;SDS011;54058;52.010;5.546;2023-05-10T11:59:05;7.72;;;5.72;;
67140;SDS011;54058;52.010;5.546;2023-05-10T12:01:31;9.30;;;5.57;;
67140;SDS011;54058;52.010;5.546;2023-05-10T12:03:57;9.88;;;5.20;;
67140;SDS011;54058;52.010;5.546;2023-05-10T12:06:28;10.68;;;5.47;;
67140;SDS011;54058;52.010;5.546;2023-05-10T12:09:01;8.13;;;4.75;;
67140;SDS011;54058;52.010;5.546;2023-05-10T12:11:35;7.90;;;4.70;;
67140;SDS011;54058;52.010;5.546;2023-05-10T12:14:03;6.97;;;4.57;;
67140;SDS011;54058;52.010;5.546;2023-05-10T12:16:30;8.55;;;5.00;;
67140;SDS011;54058;52.010;5.546;2023-05-10T12:18:56;8.57;;;5.10;;
67140;SDS011;54058;52.010;5.546;2023-05-10T12:21:23;5.70;;;4.40;;
67140;SDS011;54058;52.010;5.546;2023-05-10T12:23:50;8.25;;;4.47;;
67140;SDS011;54058;52.010;5.546;2023-05-10T12:26:17;6.45;;;4.18;;
67140;SDS011;54058;52.010;5.546;2023-05-10T12:28:43;6.07;;;4.00;;
67140;SDS011;54058;52.010;5.546;2023-05-10T12:31:09;11.37;;;4.50;;
67140;SDS011;54058;52.010;5.546;2023-05-10T12:33:39;5.63;;;4.15;;
67140;SDS011;54058;52.010;5.546;2023-05-10T12:36:07;5.82;;;4.00;;
67140;SDS011;54058;52.010;5.546;2023-05-10T12:41:13;8.93;;;4.13;;
67140;SDS011;54058;52.010;5.546;2023-05-10T12:43:40;4.43;;;3.40;;
67140;SDS011;54058;52.010;5.546;2023-05-10T12:48:36;4.65;;;3.55;;
67140;SDS011;54058;52.010;5.546;2023-05-10T12:53:28;8.07;;;3.42;;
67140;SDS011;54058;52.010;5.546;2023-05-10T12:55:54;5.53;;;3.40;;
67140;SDS011;54058;52.010;5.546;2023-05-10T12:58:20;7.63;;;4.37;;
67140;SDS011;54058;52.010;5.546;2023-05-10T13:00:46;11.63;;;6.03;;
67140;SDS011;54058;52.010;5.546;2023-05-10T13:03:11;6.72;;;6.00;;
67140;SDS011;54058;52.010;5.546;2023-05-10T13:05:37;9.77;;;5.53;;
67140;SDS011;54058;52.010;5.546;2023-05-10T13:08:03;8.45;;;6.38;;
67140;SDS011;54058;52.010;5.546;2023-05-10T13:10:29;8.93;;;6.10;;
67140;SDS011;54058;52.010;5.546;2023-05-10T13:12:56;10.57;;;7.90;;
67140;SDS011;54058;52.010;5.546;2023-05-10T13:15:23;7.88;;;6.70;;
67140;SDS011;54058;52.010;5.546;2023-05-10T13:17:48;10.02;;;8.00;;
67140;SDS011;54058;52.010;5.546;2023-05-10T13:20:14;9.07;;;6.57;;
67140;SDS011;54058;52.010;5.546;2023-05-10T13:22:41;6.78;;;4.75;;
67140;SDS011;54058;52.010;5.546;2023-05-10T13:27:33;12.10;;;5.23;;
67140;SDS011;54058;52.010;5.546;2023-05-10T13:29:59;12.70;;;5.13;;
67140;SDS011;54058;52.010;5.546;2023-05-10T13:32:25;10.10;;;4.82;;
67140;SDS011;54058;52.010;5.546;2023-05-10T13:34:51;8.52;;;4.80;;
67140;SDS011;54058;52.010;5.546;2023-05-10T13:37:16;13.25;;;5.63;;
67140;SDS011;54058;52.010;5.546;2023-05-10T13:39:42;11.65;;;5.05;;
67140;SDS011;54058;52.010;5.546;2023-05-10T13:42:07;7.03;;;4.38;;
67140;SDS011;54058;52.010;5.546;2023-05-10T13:44:33;7.75;;;4.60;;
67140;SDS011;54058;52.010;5.546;2023-05-10T13:46:59;4.82;;;4.35;;
67140;SDS011;54058;52.010;5.546;2023-05-10T13:49:25;6.40;;;4.47;;
67140;SDS011;54058;52.010;5.546;2023-05-10T13:51:50;6.68;;;5.20;;
67140;SDS011;54058;52.010;5.546;2023-05-10T13:54:16;7.70;;;5.20;;
67140;SDS011;54058;52.010;5.546;2023-05-10T13:56:44;7.45;;;5.55;;
67140;SDS011;54058;52.010;5.546;2023-05-10T13:59:12;9.82;;;5.63;;
67140;SDS011;54058;52.010;5.546;2023-05-10T14:01:38;8.55;;;5.80;;
67140;SDS011;54058;52.010;5.546;2023-05-10T14:04:04;5.85;;;4.78;;
67140;SDS011;54058;52.010;5.546;2023-05-10T14:06:31;8.73;;;5.50;;
67140;SDS011;54058;52.010;5.546;2023-05-10T14:08:56;9.30;;;5.30;;
67140;SDS011;54058;52.010;5.546;2023-05-10T14:11:22;13.43;;;5.95;;
67140;SDS011;54058;52.010;5.546;2023-05-10T14:13:48;8.82;;;5.50;;
67140;SDS011;54058;52.010;5.546;2023-05-10T14:16:14;5.72;;;4.38;;
67140;SDS011;54058;52.010;5.546;2023-05-10T14:18:39;5.65;;;4.30;;
67140;SDS011;54058;52.010;5.546;2023-05-10T14:21:05;7.20;;;4.60;;
67140;SDS011;54058;52.010;5.546;2023-05-10T14:23:31;5.88;;;4.50;;
67140;SDS011;54058;52.010;5.546;2023-05-10T14:25:57;7.38;;;3.92;;
67140;SDS011;54058;52.010;5.546;2023-05-10T14:28:22;8.98;;;4.38;;
67140;SDS011;54058;52.010;5.546;2023-05-10T14:30:49;5.53;;;3.88;;
67140;SDS011;54058;52.010;5.546;2023-05-10T14:33:16;7.68;;;4.32;;
67140;SDS011;54058;52.010;5.546;2023-05-10T14:35:42;7.18;;;5.30;;
67140;SDS011;54058;52.010;5.546;2023-05-10T14:38:07;9.90;;;5.03;;
67140;SDS011;54058;52.010;5.546;2023-05-10T14:40:33;8.85;;;5.25;;
67140;SDS011;54058;52.010;5.546;2023-05-10T14:42:59;6.97;;;5.03;;
67140;SDS011;54058;52.010;5.546;2023-05-10T14:45:25;13.13;;;6.18;;
67140;SDS011;54058;52.010;5.546;2023-05-10T14:47:50;11.18;;;5.97;;
67140;SDS011;54058;52.010;5.546;2023-05-10T14:50:16;13.38;;;6.22;;
67140;SDS011;54058;52.010;5.546;2023-05-10T14:52:43;10.35;;;6.32;;
67140;SDS011;54058;52.010;5.546;2023-05-10T14:55:09;10.90;;;6.13;;
67140;SDS011;54058;52.010;5.546;2023-05-10T14:57:34;11.45;;;6.75;;
67140;SDS011;54058;52.010;5.546;2023-05-10T15:00:00;13.50;;;6.43;;
67140;SDS011;54058;52.010;5.546;2023-05-10T15:02:27;16.33;;;7.38;;
67140;SDS011;54058;52.010;5.546;2023-05-10T15:04:52;13.23;;;7.13;;
67140;SDS011;54058;52.010;5.546;2023-05-10T15:07:18;24.10;;;7.50;;
67140;SDS011;54058;52.010;5.546;2023-05-10T15:09:44;14.25;;;7.13;;
67140;SDS011;54058;52.010;5.546;2023-05-10T15:12:10;15.43;;;7.03;;
67140;SDS011;54058;52.010;5.546;2023-05-10T15:14:36;16.30;;;6.82;;
67140;SDS011;54058;52.010;5.546;2023-05-10T15:17:02;15.45;;;7.90;;
67140;SDS011;54058;52.010;5.546;2023-05-10T15:19:27;14.23;;;7.78;;
67140;SDS011;54058;52.010;5.546;2023-05-10T15:21:54;20.15;;;7.57;;